Decoded Metar for SKRG (RIO NEGRO in COLOMBIA) (IATA:MDE) | Meteo·Mobile Aviation Weather
aviador You're here:

SKRG Decoded Metar

RIO NEGRO in COLOMBIA
Report Time2019-03-21 16:00:00
UTC Time2019-03-21 16:29:43
Flight Rules mvfr MVFR
Wind060° at 06 kt
W.Decomp.*RWY 36: 2.5 kt HW 5.4 kt RCW
W.Rank060° ranks 6
Current wind is below 060° avg. (6.0)
Visibility9999 m
Phenomena:N/A
Clouds:Broken TCU 017 Hf
Scattered 080 Hf
Expected CloudBase > 1,600 ft AGL from Temp-Dew spread
Ceiling1,700 ft
Temp19°C (ISA +18)
Dew Point15°C (78% RH)
AAT18.5°C
QNH1027 hPa
Density Alt8,871 ft
Elevation7,020 ft
Report Wrong Elevation
Raw Report
SKRG 211600Z 06006KT 9999 BKN017TCU SCT080 19/15 A3033 RMK
TCU/NE/NW=

Extra information for SKRG:More info

Metar Taf Metar & Taf Last 4 Metars F.Rules Stats Wind Profile Meteogram Temp Stats Airport Information Weather charts Add Link Nearby VenuesMetar ALERT Operation Metar Decoded Social comments